hero-logo

Polar Capital Llp - 2017-07-26

Best Moves - 2017-07-26
Rank Company Symbol Result (K)
1 Facebook Inc-A FB $10,618
2 Dolby Laboratories Inc-Cl A DLB $7,539
3 Apple Inc AAPL $6,911
4 Merck And Co Inc MRK $4,322
5 Eli Lilly And Co LLY $3,854
6 Cognex Corp CGNX $3,650
7 Intuitive Surgical Inc ISRG $3,457
8 Kirby Corp KEX $2,834
9 Copa Holdings Sa-Class A CPA $2,337
10 Supernus Pharmaceuticals Inc SUPN $2,238
11 Applied Materials Inc AMAT $1,441
12 Teva Pharmaceutical TEVA $1,310
13 Expedia Inc EXPE $1,224
14 Celgene Corp CELG $1,197
15 Suncor Energy Inc SU $1,125

 

Owner Company Symbol Date Shares Change Price Change Result (K)
Polar Capital Llp Citigroup Inc C 2017-03-31 -150,530 $0.39 $-58
Polar Capital Llp Healthcare Services Group HCSG 2017-03-31 0 $3.92 $0
Polar Capital Llp Proassurance Corp PRA 2017-03-31 21,800 $4.05 $88
Polar Capital Llp Salesforcecom Inc CRM 2017-03-31 7,050 $14.03 $98
Polar Capital Llp Biomarin Pharmaceutical Inc BMRN 2017-03-31 67,800 $4.94 $334
Polar Capital Llp Rli Corp RLI 2017-03-31 27,800 $-3.11 $-86
Polar Capital Llp Renaissancere Holdings Ltd RNR 2017-03-31 16,900 $8.43 $142
Polar Capital Llp Canadian Natural Resources CNQ 2017-03-31 145,258 $0.91 $132
Polar Capital Llp Ralph Lauren Corp RL 2017-03-31 -111,565 $-8.70 $970
Polar Capital Llp Arch Capital Group Ltd ACGL 2017-03-31 -125,822 $8.48 $-1,066
Polar Capital Llp Curis Inc CRIS 2017-03-31 121,050 $-0.30 $-36
Polar Capital Llp Pangaea Logistics Solutions PANL 2017-03-31 117,224 $0.01 $1
Polar Capital Llp Copa Holdings Sa-Class A CPA 2017-03-31 109,111 $21.42 $2,337
Polar Capital Llp Thermo Fisher Scientific Inc TMO 2017-03-31 -2,146 $12.5 $-26
Polar Capital Llp Activision Blizzard Inc ATVI 2017-03-31 73,860 $13.75 $1,015
Polar Capital Llp Neurocrine Biosciences Inc NBIX 2017-03-31 -412,256 $4.6 $-1,896
Polar Capital Llp Netease Inc NTES 2017-03-31 -20,166 $68.66 $-1,384
Polar Capital Llp Mastercard Inc-Class A MA 2017-03-31 -43,244 $9.22 $-398
Polar Capital Llp Discover Financial Services DFS 2017-03-31 0 $-3.70 $0
Polar Capital Llp Xilinx Inc XLNX 2017-03-31 181,450 $-2.48 $-449
Polar Capital Llp Schwab Charles Corp SCHW 2017-03-31 -4,638 $1.34 $-6
Polar Capital Llp Supernus Pharmaceuticals Inc SUPN 2017-03-31 370,000 $6.05 $2,238
Polar Capital Llp Servicenow Inc NOW 2017-03-31 66,182 $13.13 $868
Polar Capital Llp Hdfc Bank Ltd HDB 2017-03-31 3,498 $14.54 $50
Polar Capital Llp Eli Lilly And Co LLY 2017-03-31 365,000 $10.56 $3,854
Polar Capital Llp Allied World Assurance Co AWH 2017-03-31 19,200 $-0.61 $-11
Polar Capital Llp Sabra Health Care Reit Inc SBRA 2017-03-31 0 $3.51 $0
Polar Capital Llp Baxter International Inc BAX 2017-03-31 76,223 $7.52 $573
Polar Capital Llp Gilead Sciences Inc GILD 2017-03-31 32,000 $-3.69 $-118
Polar Capital Llp Marsh And Mclennan Cos MMC 2017-03-31 129,700 $6.30 $817
Polar Capital Llp Wells Fargo And Co WFC 2017-03-31 917,128 $0.55 $504
Polar Capital Llp Healthcare Realty Trust Inc HR 2017-03-31 0 $2.18 $0
Polar Capital Llp Hcp Inc HCP 2017-03-31 0 $1.56 $0
Polar Capital Llp Progressive Corp PGR 2017-03-31 296,000 $3.68 $1,089
Polar Capital Llp Pacific Premier Bancorp Inc PPBI 2017-03-31 36,128 $3.20 $115
Polar Capital Llp Acadia Pharmaceuticals Inc ACAD 2017-03-31 155,000 $5.54 $858
Polar Capital Llp Becton Dickinson And Co BDX 2017-03-31 0 $17.89 $0
Polar Capital Llp Natl Health Investors Inc NHI 2017-03-31 0 $-1.54 $0
Polar Capital Llp Laboratory Crp Of Amer Hldgs LH 2017-03-31 -65,000 $15.09 $-980
Polar Capital Llp Novadaq Technologies Inc NVDQ 2017-03-31 -25,000 $0.70 $-17
Polar Capital Llp Affiliated Managers Group AMG 2017-03-31 -2,227 $18.64 $-41
Polar Capital Llp Intercept Pharmaceuticals In ICPT 2017-03-31 1,500 $4.45 $6
Polar Capital Llp Wr Berkley Corp WRB 2017-03-31 36,000 $4.12 $148
Polar Capital Llp Power Integrations Inc POWI 2017-03-31 -123,470 $-2.10 $259
Polar Capital Llp Senior Housing Prop Trust SNH 2017-03-31 0 $1.32 $0
Polar Capital Llp Nxstage Medical Inc NXTM 2017-03-31 141,612 $0.62 $87
Polar Capital Llp Brown And Brown Inc BRO 2017-03-31 17,000 $-3.14 $-53
Polar Capital Llp Baidu Inc BIDU 2017-03-31 7,859 $8.11 $63
Polar Capital Llp Dolby Laboratories Inc-Cl A DLB 2017-03-31 1,044,293 $7.22 $7,539
Polar Capital Llp Regeneron Pharmaceuticals REGN 2017-03-31 -3,250 $20.42 $-66
Polar Capital Llp Intel Corp INTC 2017-03-31 -1,608,261 $-0.20 $321
Polar Capital Llp Main Street Capital Corp MAIN 2017-03-31 0 $1.50 $0
Polar Capital Llp Facebook Inc-A FB 2017-03-31 393,264 $27.00 $10,618
Polar Capital Llp Visa Inc-Class A Shares V 2017-03-31 73,553 $10.85 $798
Polar Capital Llp Validus Holdings Ltd VR 2017-03-31 -144,205 $1.38 $-199
Polar Capital Llp Pegasystems Inc PEGA 2017-03-31 18,150 $7.85 $142
Polar Capital Llp Alexion Pharmaceuticals Inc ALXN 2017-03-31 -22,916 $-1.11 $25
Polar Capital Llp Proofpoint Inc PFPT 2017-03-31 100,410 $3.71 $372
Polar Capital Llp Moodys Corp MCO 2017-03-31 -5,066 $17.77 $-90
Polar Capital Llp Alleghany Corp Y 2017-03-31 6,100 $6.54 $39
Polar Capital Llp Unitedhealth Group Inc UNH 2017-03-31 15,000 $3.97 $59
Polar Capital Llp Booz Allen Hamilton Holdings BAH 2017-03-31 -77,933 $-0.68 $52
Polar Capital Llp Take-Two Interactive Softwre TTWO 2017-03-31 34,590 $9.98 $345
Polar Capital Llp Stryker Corp SYK 2017-03-31 82,500 $11.84 $976
Polar Capital Llp Red Hat Inc RHT 2017-03-31 -42,588 $16.8 $-715
Polar Capital Llp 8x8 Inc EGHT 2017-03-31 -168,821 $0.95 $-160
Polar Capital Llp Reinsurance Group Of America RGA 2017-03-31 -4,800 $1.15 $-5
Polar Capital Llp Athenahealth Inc ATHN 2017-03-31 -7,200 $7.52 $-54
Polar Capital Llp Cisco Systems Inc CSCO 2017-03-31 -20,811 $3.58 $-74
Polar Capital Llp Suncor Energy Inc SU 2017-03-31 -580,348 $-1.94 $1,125
Polar Capital Llp Meridian Bioscience Inc VIVO 2017-03-31 0 $-3.9 $0
Polar Capital Llp Ares Capital Corp ARCC 2017-03-31 -50,000 $0.89 $-44
Polar Capital Llp Apple Inc AAPL 2017-03-31 248,250 $27.84 $6,911
Polar Capital Llp Bristol-Myers Squibb Co BMY 2017-03-31 40,000 $-4.06 $-162
Polar Capital Llp Expedia Inc EXPE 2017-03-31 94,997 $12.89 $1,224
Polar Capital Llp Union Pacific Corp UNP 2017-03-31 -7,197 $2.24 $-16
Polar Capital Llp Brookdale Senior Living Inc BKD 2017-03-31 0 $1.01 $0
Polar Capital Llp Applied Materials Inc AMAT 2017-03-31 217,466 $6.63 $1,441
Polar Capital Llp Texas Instruments Inc TXN 2017-03-31 -37,969 $7.59 $-288
Polar Capital Llp First Republic Bankca FRC 2017-03-31 -6,452 $1.67 $-10
Polar Capital Llp Electronic Arts Inc EA 2017-03-31 2,065 $10.76 $22
Polar Capital Llp Himax Technologies Inc HIMX 2017-03-31 -1,306,359 $3.08 $-4,023
Polar Capital Llp Kla-Tencor Corp KLAC 2017-03-31 31,858 $16.39 $522
Polar Capital Llp Aflac Inc AFL 2017-03-31 16,900 $2.82 $47
Polar Capital Llp Axis Capital Holdings Ltd AXS 2017-03-31 -29,100 $1.76 $-51
Polar Capital Llp Priceline Group Incthe PCLN 2017-03-31 500 $313.91 $156
Polar Capital Llp Bank Of America Corp BAC 2017-03-31 518,933 $1.49 $773
Polar Capital Llp Mednax Inc MD 2017-03-31 84,278 $2.72 $229
Polar Capital Llp Adobe Systems Inc ADBE 2017-03-31 -24,773 $27.18 $-673
Polar Capital Llp Svb Financial Group SIVB 2017-03-31 945 $14.43 $13
Polar Capital Llp Accenture Plc-Cl A ACN 2017-03-31 -4,432 $2.75 $-12
Polar Capital Llp Nvidia Corp NVDA 2017-03-31 -7,500 $2.19 $-16
Polar Capital Llp J2 Global Inc JCOM 2017-03-31 -3,700 $2.11 $-7
Polar Capital Llp Microsoft Corp MSFT 2017-03-31 97,000 $3.72 $360
Polar Capital Llp Tesaro Inc TSRO 2017-03-31 -9,000 $19.39 $-174
Polar Capital Llp Boston Scientific Corp BSX 2017-03-31 0 $3.24 $0
Polar Capital Llp Meta Financial Group Inc CASH 2017-03-31 6,272 $-14.4 $-90
Polar Capital Llp Taser International Inc TASR 2017-03-31 143,140 $0.00 $0
Polar Capital Llp Mckesson Corp MCK 2017-03-31 -87,350 $7.81 $-682
Polar Capital Llp Abbvie Inc ABBV 2017-03-31 -40,000 $2.54 $-101
Polar Capital Llp Pnc Financial Services Group PNC 2017-03-31 -7,300 $3.28 $-23
Polar Capital Llp Agilent Technologies Inc A 2017-03-31 69,500 $7.31 $508
Polar Capital Llp Merck And Co Inc MRK 2017-03-31 925,618 $4.67 $4,322
Polar Capital Llp Amazoncom Inc AMZN 2017-03-31 -6,957 $136.67 $-950
Polar Capital Llp Keycorp KEY 2017-03-31 34,329 $-0.49 $-16
Polar Capital Llp Vertex Pharmaceuticals Inc VRTX 2017-03-31 0 $35.68 $0
Polar Capital Llp Omega Healthcare Investors OHI 2017-03-31 0 $1.73 $0
Polar Capital Llp Cigna Corp CI 2017-03-31 -1,931 $13.10 $-25
Polar Capital Llp Palo Alto Networks Inc PANW 2017-03-31 -81,662 $-12.37 $1,010
Polar Capital Llp Advanced Micro Devices AMD 2017-03-31 -626,084 $3.21 $-2,009
Polar Capital Llp Medidata Solutions Inc MDSO 2017-03-31 -18,900 $8.02 $-151
Polar Capital Llp Danaher Corp DHR 2017-03-31 -135,500 $7.69 $-1,041
Polar Capital Llp Qualcomm Inc QCOM 2017-03-31 -35,546 $-7.86 $279
Polar Capital Llp Spectranetics Corp SPNC 2017-03-31 -75,000 $4.63 $-347
Polar Capital Llp Exelixis Inc EXEL 2017-03-31 -15,000 $6.76 $-101
Polar Capital Llp Abiomed Inc ABMD 2017-03-31 30,000 $12.52 $375
Polar Capital Llp Interpublic Group Of Cos Inc IPG 2017-03-31 372,679 $1.16 $432
Polar Capital Llp Ultimate Software Group Inc ULTI 2017-03-31 -23,987 $12.86 $-308
Polar Capital Llp Incyte Corp INCY 2017-03-31 -49,491 $33.40 $-1,652
Polar Capital Llp Splunk Inc SPLK 2017-03-31 52,335 $11.14 $583
Polar Capital Llp Haemonetics Corpmass HAE 2017-03-31 50,000 $0.37 $18
Polar Capital Llp Fidelity National Info Serv FIS 2017-03-31 -60,289 $3.98 $-239
Polar Capital Llp Jpmorgan Chase And Co JPM 2017-03-31 -192,432 $1.55 $-298
Polar Capital Llp Toronto-Dominion Bank TD 2017-03-31 15,706 $0.75 $11
Polar Capital Llp Perkinelmer Inc PKI 2017-03-31 -233,931 $5.91 $-1,382
Polar Capital Llp Ebay Inc EBAY 2017-03-31 47,612 $3.88 $184
Polar Capital Llp Biogen Inc BIIB 2017-03-31 0 $-10.16 $0
Polar Capital Llp Carnival Corp CCL 2017-03-31 -68,056 $6.85 $-466
Polar Capital Llp Pepsico Inc PEP 2017-03-31 -8,821 $7.23 $-63
Polar Capital Llp Akamai Technologies Inc AKAM 2017-03-31 -132,679 $-6.98 $926
Polar Capital Llp Cr Bard Inc BCR 2017-03-31 -28,567 $23.88 $-682
Polar Capital Llp Medical Properties Trust Inc MPW 2017-03-31 20,000 $0.59 $11
Polar Capital Llp Abbott Laboratories ABT 2017-03-31 -450,000 $6.00 $-2,700
Polar Capital Llp Us Bancorp USB 2017-03-31 8,612 $0.13 $1
Polar Capital Llp Freeport-Mcmoran Inc FCX 2017-03-31 485,602 $0.17 $82
Polar Capital Llp Celgene Corp CELG 2017-03-31 138,000 $8.68 $1,197
Polar Capital Llp Centene Corp CNC 2017-03-31 0 $14.75 $0
Polar Capital Llp Markel Corp MKL 2017-03-31 6,472 $71.36 $461
Polar Capital Llp Proto Labs Inc PRLB 2017-03-31 35,600 $-0.25 $-8
Polar Capital Llp Pfizer Inc PFE 2017-03-31 -219,634 $1.73 $-379
Polar Capital Llp Ametek Inc AME 2017-03-31 -14,359 $5.48 $-78
Polar Capital Llp East West Bancorp Inc EWBC 2017-03-31 -7,500 $0.78 $-5
Polar Capital Llp Dexcom Inc DXCM 2017-03-31 -291,498 $25.03 $-7,296
Polar Capital Llp Aetna Inc AET 2017-03-31 108,012 $3.54 $382
Polar Capital Llp Amdocs Ltd DOX 2017-03-31 -104,584 $2.74 $-286
Polar Capital Llp Agco Corp AGCO 2017-03-31 -5,567 $2.32 $-12
Polar Capital Llp Solar Capital Ltd SLRC 2017-03-31 -19,500 $1.79 $-34
Polar Capital Llp Workday Inc-Class A WDAY 2017-03-31 -10,000 $17.19 $-171
Polar Capital Llp Travelers Cos Incthe TRV 2017-03-31 29,100 $-1.88 $-54
Polar Capital Llp Amgen Inc AMGN 2017-03-31 23,250 $17.86 $415
Polar Capital Llp New Mountain Finance Corp NMFC 2017-03-31 0 $0.8 $0
Polar Capital Llp Pennantpark Floating Rate Ca PFLT 2017-03-31 0 $-0.17 $0
Polar Capital Llp Aecom ACM 2017-03-31 -91,262 $-0.77 $70
Polar Capital Llp Aon Plc AON 2017-03-31 48,948 $7.16 $350
Polar Capital Llp Johnson And Johnson JNJ 2017-03-31 0 $9.34 $0
Polar Capital Llp Lam Research Corp LRCX 2017-03-31 21,990 $22.63 $497
Polar Capital Llp Hca Holdings Inc HCA 2017-03-31 0 $14.97 $0
Polar Capital Llp Ariad Pharmaceuticals Inc ARIA 2017-03-31 -1,235,000
Polar Capital Llp New Gold Inc NGD 2017-03-31 1,165,212 $-0.52 $-605
Polar Capital Llp Callidus Software Inc CALD 2017-03-31 222,957 $4.55 $1,014
Polar Capital Llp Agnico Eagle Mines Ltd AEM 2017-03-31 121,369 $0.44 $53
Polar Capital Llp Taiwan Semiconductor TSM 2017-03-31 6,591 $4.09 $26
Polar Capital Llp Prothena Corp Plc PRTA 2017-03-31 30,000 $6.60 $198
Polar Capital Llp Kirby Corp KEX 2017-03-31 699,889 $4.05 $2,834
Polar Capital Llp Hecla Mining Co HL 2017-03-31 863,162 $0.05 $43
Polar Capital Llp Intuitive Surgical Inc ISRG 2017-03-31 26,134 $132.30 $3,457
Polar Capital Llp Hologic Inc HOLX 2017-03-31 70,000 $2.43 $170
Polar Capital Llp Cognex Corp CGNX 2017-03-31 179,546 $20.33 $3,650
Polar Capital Llp Agrium Inc AGU 2017-03-31 5,000 $-5.00 $-25
Polar Capital Llp Broadsoft Inc BSFT 2017-03-31 55,396 $-1.05 $-58
Polar Capital Llp Inphi Corp IPHI 2017-03-31 68,573 $4.20 $288
Polar Capital Llp Tesla Motors Inc TSLA 2017-03-31 -5,680 $64.61 $-366
Polar Capital Llp Silicon Motion Technol SIMO 2017-03-31 -308,096 $4.27 $-1,315
Polar Capital Llp Align Technology Inc ALGN 2017-03-31 -121,947 $18.58 $-2,265
Polar Capital Llp Pacira Pharmaceuticals Inc PCRX 2017-03-31 -25,000 $13.3 $-332
Polar Capital Llp Methanex Corp MEOH 2017-03-31 -515,014 $3.1 $-1,596
Polar Capital Llp Mobile Telesystems MBT 2017-03-31 -700,000 $1.92 $-1,344
Polar Capital Llp National Instruments Corp NATI 2017-03-31 -170,543 $1.74 $-296
Polar Capital Llp Teva Pharmaceutical TEVA 2017-03-31 -315,000 $-4.16 $1,310
Polar Capital Llp Tripadvisor Inc TRIP 2017-03-31 -40,682 $-3.21 $130
Polar Capital Llp Micron Technology Inc MU 2017-03-31 -1,926,040 $6.98 $-13,443
Polar Capital Llp Seattle Genetics Inc SGEN 2017-03-31 -30,000 $10.09 $-302
Polar Capital Llp Vasco Data Security Intl VDSI 2017-03-31 -592,870 $-0.15 $88
Polar Capital Llp Unisys Corp UIS 2017-03-31 -223,947 $-1.00 $223
Polar Capital Llp Amedisys Inc AMED 2017-03-31 -386,696 $8.46 $-3,271
Polar Capital Llp Cirrus Logic Inc CRUS 2017-03-31 -441,375 $4.15 $-1,831
Polar Capital Llp Te Connectivity Ltd TEL 2017-03-31 -363,936 $5.27 $-1,917
Polar Capital Llp Zeltiq Aesthetics Inc ZLTQ 2017-03-31 -125,000 $0.00 $0